Time;durP1;ratioP1;P1;durP2;ratioP2;P2;SDS_P1;SDS_P2;PMS_P1;PMS_P2;Temp;Humidity;BMP_temperature;BMP_pressure;BME280_temperature;BME280_humidity;BME280_pressure;Samples;Min_cycle;Max_cycle;Signal;HPM_P1;HPM_P2
2023/03/28 00:02:24;;;;;;;;;;;;;;;-0.13;100.00;100200.31;5094064;28;19916;-76
2023/03/28 00:04:51;;;;;;;;;;;;;;;-0.12;100.00;100201.88;5093675;28;20266;-76
2023/03/28 00:07:19;;;;;;;;;;;;;;;-0.11;100.00;100203.47;5094226;28;20333;-76
2023/03/28 00:09:47;;;;;;;;;;;;;;;-0.12;100.00;100201.06;5092757;28;20377;-75
2023/03/28 00:12:13;;;;;;;;;;;;;;;-0.12;100.00;100223.53;5092858;28;19923;-75
2023/03/28 00:14:41;;;;;;;;;;;;;;;-0.16;100.00;100194.72;5091952;28;19926;-76
2023/03/28 00:17:07;;;;;;;;;;;;;;;-0.17;100.00;100193.91;5091927;28;19946;-76
2023/03/28 00:19:33;;;;;;;;;;;;;;;-0.15;100.00;100190.69;5093824;28;20303;-77
2023/03/28 00:21:59;;;;;;;;;;;;;;;-0.18;100.00;100197.97;5093332;28;19912;-75
2023/03/28 00:24:27;;;;;;;;;;;;;;;-0.17;100.00;100188.31;5093640;28;19918;-75
2023/03/28 00:26:54;;;;;;;;;;;;;;;-0.16;100.00;100186.28;5093806;28;19995;-76
2023/03/28 00:29:21;;;;;;;;;;;;;;;-0.22;100.00;100191.56;5093841;28;19923;-77
2023/03/28 00:31:48;;;;;;;;;;;;;;;-0.29;100.00;100184.06;5092311;28;20277;-76
2023/03/28 00:34:15;;;;;;;;;;;;;;;-0.34;100.00;100194.97;5092659;28;19924;-77
2023/03/28 00:36:41;;;;;;;;;;;;;;;-0.42;100.00;100177.41;5092312;28;19916;-75
2023/03/28 00:39:09;;;;;;;;;;;;;;;-0.44;100.00;100185.47;5093335;28;20377;-76
2023/03/28 00:41:38;;;;;;;;;;;;;;;-0.36;100.00;100184.16;5092246;28;19920;-75
2023/03/28 00:44:24;;;;;;;;;;;;;;;-0.37;100.00;100187.38;5092453;28;19920;-76
2023/03/28 00:46:57;;;;;;;;;;;;;;;-0.37;100.00;100185.38;5093314;28;19919;-77
2023/03/28 00:49:24;;;;;;;;;;;;;;;-0.34;100.00;100180.94;5093023;28;20002;-76
2023/03/28 00:51:56;;;;;;;;;;;;;;;-0.35;100.00;100184.94;5092200;28;19916;-75
2023/03/28 00:54:33;;;;;;;;;;;;;;;-0.25;100.00;100189.63;5075235;28;19971;-77
2023/03/28 00:57:00;;;;;;;;;;;;;;;-0.28;100.00;100182.84;5093048;28;19920;-78
2023/03/28 00:59:30;;;;;;;;;;;;;;;-0.33;100.00;100191.75;5091454;28;22427;-76
2023/03/28 01:01:55;;;;;;;;;;;;;;;-0.35;100.00;100182.94;5091914;28;19924;-76
2023/03/28 01:04:21;;;;;;;;;;;;;;;-0.34;100.00;100184.53;5074862;28;19966;-76
2023/03/28 01:06:53;;;;;;;;;;;;;;;-0.34;100.00;100189.34;5092161;28;19985;-77
2023/03/28 01:09:25;;;;;;;;;;;;;;;-0.30;100.00;100196.50;5091493;28;19916;-75
2023/03/28 01:11:53;;;;;;;;;;;;;;;-0.24;100.00;100180.00;5093111;28;19913;-76
2023/03/28 01:14:20;;;;;;;;;;;;;;;-0.23;100.00;100180.78;5075011;28;19962;-77
2023/03/28 01:16:48;;;;;;;;;;;;;;;-0.18;100.00;100183.13;5092937;28;19923;-76
2023/03/28 01:19:25;;;;;;;;;;;;;;;-0.16;100.00;100178.66;5093306;28;19912;-76
2023/03/28 01:22:06;;;;;;;;;;;;;;;-0.04;100.00;100185.72;5092957;28;19921;-75
2023/03/28 01:24:50;;;;;;;;;;;;;;;-0.05;100.00;100176.50;5093020;28;19934;-75
2023/03/28 01:27:17;;;;;;;;;;;;;;;-0.03;100.00;100173.28;5093176;28;19912;-76
2023/03/28 01:29:59;;;;;;;;;;;;;;;-0.01;100.00;100171.63;5093207;28;19962;-76
2023/03/28 01:32:34;;;;;;;;;;;;;;;0.05;100.00;100183.97;5092708;28;19948;-76
2023/03/28 01:35:03;;;;;;;;;;;;;;;0.10;100.00;100172.25;5092879;28;20369;-76
2023/03/28 01:37:30;;;;;;;;;;;;;;;0.22;100.00;100173.66;5092830;28;19970;-76
2023/03/28 01:40:15;;;;;;;;;;;;;;;0.25;100.00;100163.59;5092815;28;20019;-75
2023/03/28 01:43:11;;;;;;;;;;;;;;;0.27;100.00;100161.19;5092746;28;20269;-75
2023/03/28 01:45:48;;;;;;;;;;;;;;;0.30;100.00;100172.34;5083553;28;20007;-76
2023/03/28 01:48:22;;;;;;;;;;;;;;;0.36;100.00;100153.78;5092730;28;19916;-76
2023/03/28 01:50:50;;;;;;;;;;;;;;;0.47;100.00;100150.78;5091444;28;19937;-77
2023/03/28 01:53:28;;;;;;;;;;;;;;;0.54;100.00;100168.31;5091302;28;19985;-76
2023/03/28 01:56:17;;;;;;;;;;;;;;;0.57;100.00;100158.22;5092682;28;19970;-76
2023/03/28 01:58:45;;;;;;;;;;;;;;;0.79;100.00;100162.25;5071788;28;19931;-75
2023/03/28 02:01:22;;;;;;;;;;;;;;;0.79;100.00;100150.22;5093985;28;19912;-75
2023/03/28 02:03:50;;;;;;;;;;;;;;;0.86;100.00;100162.13;5094837;28;19916;-76
2023/03/28 02:06:19;;;;;;;;;;;;;;;0.83;100.00;100165.00;5095024;28;19955;-75
2023/03/28 02:08:46;;;;;;;;;;;;;;;0.75;100.00;100164.34;5078496;28;19912;-75
2023/03/28 02:11:12;;;;;;;;;;;;;;;0.73;100.00;100160.38;5094901;28;19970;-75
2023/03/28 02:13:43;;;;;;;;;;;;;;;0.67;100.00;100156.44;5096433;28;19912;-75
2023/03/28 02:16:09;;;;;;;;;;;;;;;0.56;100.00;100163.09;5096202;28;19919;-76
2023/03/28 02:18:36;;;;;;;;;;;;;;;0.55;100.00;100161.50;5094908;28;19921;-75
2023/03/28 02:21:27;;;;;;;;;;;;;;;0.45;100.00;100159.66;5094852;28;19912;-75
2023/03/28 02:23:54;;;;;;;;;;;;;;;0.40;100.00;100160.16;5076998;28;20001;-75
2023/03/28 02:26:21;;;;;;;;;;;;;;;0.43;100.00;100161.28;5094575;28;19916;-75
2023/03/28 02:28:49;;;;;;;;;;;;;;;0.37;100.00;100157.41;5077634;28;20023;-77
2023/03/28 02:31:16;;;;;;;;;;;;;;;0.40;100.00;100162.16;5095041;28;19923;-76
2023/03/28 02:33:43;;;;;;;;;;;;;;;0.38;100.00;100156.16;5094591;28;19912;-76
2023/03/28 02:36:28;;;;;;;;;;;;;;;0.45;100.00;100161.66;5094386;28;19935;-76
2023/03/28 02:39:12;;;;;;;;;;;;;;;0.45;100.00;100170.09;5095364;28;19920;-76
2023/03/28 02:41:46;;;;;;;;;;;;;;;0.50;100.00;100172.44;5095830;28;20316;-75
2023/03/28 02:44:26;;;;;;;;;;;;;;;0.63;100.00;100167.78;5095727;28;19912;-75
2023/03/28 02:46:54;;;;;;;;;;;;;;;0.68;100.00;100170.09;5094219;28;19919;-75
2023/03/28 02:49:27;;;;;;;;;;;;;;;0.67;100.00;100173.31;5094160;28;20334;-75
2023/03/28 02:52:33;;;;;;;;;;;;;;;0.73;100.00;100183.66;5094165;28;19949;-76
2023/03/28 02:55:06;;;;;;;;;;;;;;;0.80;100.00;100171.50;5052991;28;19920;-77
2023/03/28 02:57:52;;;;;;;;;;;;;;;0.78;100.00;100174.72;5086706;28;19920;-75
2023/03/28 03:00:18;;;;;;;;;;;;;;;0.79;100.00;100172.72;5093734;28;19912;-76
2023/03/28 03:02:57;;;;;;;;;;;;;;;0.78;100.00;100171.13;5093943;28;20330;-77
2023/03/28 03:05:23;;;;;;;;;;;;;;;0.72;100.00;100172.84;5093951;28;19916;-76
2023/03/28 03:07:50;;;;;;;;;;;;;;;0.63;100.00;100178.22;5095462;28;19961;-74
2023/03/28 03:10:17;;;;;;;;;;;;;;;0.59;100.00;100179.09;5093578;28;19912;-74
2023/03/28 03:12:43;;;;;;;;;;;;;;;0.55;100.00;100174.75;5093089;28;19912;-75
2023/03/28 03:15:10;;;;;;;;;;;;;;;0.59;100.00;100184.72;5093856;28;19912;-75
2023/03/28 03:17:37;;;;;;;;;;;;;;;0.64;100.00;100188.25;5095119;28;19920;-75
2023/03/28 03:20:05;;;;;;;;;;;;;;;0.61;100.00;100176.63;5095936;28;19916;-74
2023/03/28 03:22:31;;;;;;;;;;;;;;;0.64;100.00;100189.03;5094958;28;20235;-74
2023/03/28 03:25:03;;;;;;;;;;;;;;;0.64;100.00;100189.03;5094769;28;20404;-75
2023/03/28 03:27:30;;;;;;;;;;;;;;;0.73;100.00;100182.88;5093914;28;20319;-75
2023/03/28 03:29:56;;;;;;;;;;;;;;;0.81;100.00;100187.91;5093432;28;19943;-75
2023/03/28 03:32:22;;;;;;;;;;;;;;;0.84;100.00;100191.91;5093805;28;19912;-75
2023/03/28 03:34:48;;;;;;;;;;;;;;;0.90;100.00;100187.38;5093333;28;20276;-75
2023/03/28 03:37:16;;;;;;;;;;;;;;;0.91;100.00;100188.97;5094492;28;19977;-73
2023/03/28 03:39:46;;;;;;;;;;;;;;;0.87;100.00;100193.84;5092734;28;19912;-75
2023/03/28 03:42:11;;;;;;;;;;;;;;;0.84;100.00;100189.09;5094819;28;19968;-75
2023/03/28 03:44:37;;;;;;;;;;;;;;;0.77;100.00;100187.19;5093271;28;19923;-75
2023/03/28 03:47:03;;;;;;;;;;;;;;;0.79;100.00;100189.59;5094298;28;19912;-75
2023/03/28 03:49:29;;;;;;;;;;;;;;;0.77;100.00;100192.03;5094600;28;20387;-76
2023/03/28 03:51:55;;;;;;;;;;;;;;;0.79;100.00;100190.38;5093004;28;19946;-75
2023/03/28 03:54:22;;;;;;;;;;;;;;;0.84;100.00;100195.53;5093282;28;20036;-75
2023/03/28 03:56:48;;;;;;;;;;;;;;;0.78;100.00;100199.25;5092680;28;20426;-75
2023/03/28 03:59:15;;;;;;;;;;;;;;;0.77;100.00;100197.66;5094516;28;19965;-75
2023/03/28 04:01:42;;;;;;;;;;;;;;;0.77;100.00;100195.63;5094223;28;19928;-76
2023/03/28 04:04:10;;;;;;;;;;;;;;;0.85;100.00;100193.50;5093070;28;19977;-76
2023/03/28 04:06:37;;;;;;;;;;;;;;;0.88;100.00;100201.88;5092689;28;20203;-74
2023/03/28 04:09:05;;;;;;;;;;;;;;;0.89;100.00;100197.03;5092124;28;20276;-75
2023/03/28 04:11:30;;;;;;;;;;;;;;;0.88;100.00;100204.69;5092724;28;19935;-75
2023/03/28 04:13:56;;;;;;;;;;;;;;;0.97;100.00;100204.91;5094208;28;20323;-74
2023/03/28 04:16:22;;;;;;;;;;;;;;;1.04;100.00;100204.00;5094039;28;20435;-75
2023/03/28 04:18:52;;;;;;;;;;;;;;;1.06;100.00;100212.78;5092486;28;19938;-73
2023/03/28 04:21:26;;;;;;;;;;;;;;;1.02;100.00;100207.22;5092287;28;19916;-75
2023/03/28 04:23:53;;;;;;;;;;;;;;;1.06;100.00;100224.03;5091941;28;19915;-74
2023/03/28 04:26:39;;;;;;;;;;;;;;;1.05;100.00;100222.47;5092386;28;19946;-76
2023/03/28 04:29:05;;;;;;;;;;;;;;;1.12;100.00;100242.00;5093537;28;20277;-75
2023/03/28 04:31:34;;;;;;;;;;;;;;;1.11;100.00;100223.53;5093687;28;19927;-75
2023/03/28 04:34:02;;;;;;;;;;;;;;;1.07;100.00;100252.97;5093763;28;19919;-76
2023/03/28 04:36:28;;;;;;;;;;;;;;;1.06;100.00;100248.59;5093389;28;19991;-75
2023/03/28 04:38:57;;;;;;;;;;;;;;;0.93;100.00;100254.81;5091837;28;20002;-75
2023/03/28 04:41:44;;;;;;;;;;;;;;;0.86;100.00;100262.59;5092913;28;19993;-75
2023/03/28 04:44:11;;;;;;;;;;;;;;;0.87;100.00;100266.97;5092555;28;19911;-72
2023/03/28 04:46:36;;;;;;;;;;;;;;;0.83;100.00;100269.84;5093283;28;19912;-74
2023/03/28 04:49:01;;;;;;;;;;;;;;;0.81;100.00;100272.28;5092157;28;20407;-75
2023/03/28 04:51:27;;;;;;;;;;;;;;;0.81;100.00;100279.97;5075014;28;19919;-75
2023/03/28 04:53:54;;;;;;;;;;;;;;;0.78;100.00;100287.22;5093409;28;19958;-73
2023/03/28 04:56:21;;;;;;;;;;;;;;;0.77;100.00;100298.88;5093212;28;19912;-69
2023/03/28 04:58:46;;;;;;;;;;;;;;;0.73;100.00;100290.50;5091979;28;20006;-73
2023/03/28 05:01:13;;;;;;;;;;;;;;;0.75;100.00;100304.16;5091965;28;19947;-72
2023/03/28 05:03:39;;;;;;;;;;;;;;;0.75;100.00;100307.75;5091967;28;20292;-71
2023/03/28 05:06:06;;;;;;;;;;;;;;;0.71;100.00;100306.22;5093596;28;20265;-76
2023/03/28 05:08:31;;;;;;;;;;;;;;;0.72;100.00;100302.97;5092803;28;19920;-75
2023/03/28 05:10:58;;;;;;;;;;;;;;;0.71;100.00;100312.66;5090787;28;19912;-78
2023/03/28 05:13:24;;;;;;;;;;;;;;;0.77;100.00;100313.75;5090258;28;19943;-75
2023/03/28 05:15:53;;;;;;;;;;;;;;;0.84;100.00;100322.06;5093682;28;19913;-73
2023/03/28 05:18:19;;;;;;;;;;;;;;;0.96;100.00;100331.94;5093183;28;19941;-73
2023/03/28 05:20:45;;;;;;;;;;;;;;;0.85;100.00;100331.31;5093320;28;20250;-72
2023/03/28 05:23:11;;;;;;;;;;;;;;;0.91;100.00;100332.44;5092505;28;19912;-75
2023/03/28 05:25:36;;;;;;;;;;;;;;;1.06;100.00;100330.94;5092621;28;20383;-76
2023/03/28 05:28:01;;;;;;;;;;;;;;;1.18;100.00;100338.00;5090606;28;20008;-76
2023/03/28 05:30:28;;;;;;;;;;;;;;;1.21;100.00;100360.44;5092531;28;20011;-75
2023/03/28 05:32:53;;;;;;;;;;;;;;;1.23;100.00;100352.38;5090865;28;19912;-76
2023/03/28 05:35:21;;;;;;;;;;;;;;;1.21;100.00;100362.47;5095571;28;19912;-77
2023/03/28 05:37:47;;;;;;;;;;;;;;;1.16;100.00;100365.78;5096068;28;19943;-77
2023/03/28 05:40:13;;;;;;;;;;;;;;;1.16;100.00;100363.75;5095501;28;19966;-77
2023/03/28 05:42:38;;;;;;;;;;;;;;;1.13;100.00;100375.84;5095888;28;19912;-77
2023/03/28 05:45:04;;;;;;;;;;;;;;;1.06;100.00;100375.97;5096863;28;20261;-79
2023/03/28 05:47:30;;;;;;;;;;;;;;;0.92;100.00;100379.00;5097002;28;19991;-77
2023/03/28 05:49:55;;;;;;;;;;;;;;;0.86;100.00;100381.50;5095354;28;19951;-79
2023/03/28 05:52:20;;;;;;;;;;;;;;;0.84;100.00;100388.78;5096291;28;19964;-78
2023/03/28 05:54:46;;;;;;;;;;;;;;;0.88;100.00;100390.31;5094574;28;19912;-76
2023/03/28 05:57:11;;;;;;;;;;;;;;;0.86;100.00;100398.38;5092299;28;19928;-79
2023/03/28 05:59:39;;;;;;;;;;;;;;;0.85;100.00;100393.19;5093809;28;19919;-78
2023/03/28 06:02:05;;;;;;;;;;;;;;;0.90;100.00;100396.31;5092339;28;19916;-79
2023/03/28 06:04:31;;;;;;;;;;;;;;;1.02;100.00;100408.97;5093981;28;20421;-77
2023/03/28 06:06:56;;;;;;;;;;;;;;;1.16;100.00;100397.50;5094173;28;19926;-78
2023/03/28 06:09:22;;;;;;;;;;;;;;;1.30;100.00;100413.38;5093561;28;19912;-77
2023/03/28 06:11:47;;;;;;;;;;;;;;;1.42;100.00;100422.00;5094846;28;20003;-76
2023/03/28 06:14:12;;;;;;;;;;;;;;;1.48;100.00;100425.13;5096537;28;19931;-78
2023/03/28 06:16:37;;;;;;;;;;;;;;;1.43;100.00;100432.06;5096126;28;19920;-77
2023/03/28 06:19:03;;;;;;;;;;;;;;;1.40;100.00;100423.69;5077796;28;20011;-76
2023/03/28 06:21:28;;;;;;;;;;;;;;;1.42;100.00;100430.47;5094877;28;19973;-77
2023/03/28 06:23:54;;;;;;;;;;;;;;;1.55;100.00;100427.06;5094545;28;19916;-77
2023/03/28 06:26:19;;;;;;;;;;;;;;;1.70;100.00;100448.88;5094745;28;20278;-77
2023/03/28 06:28:45;;;;;;;;;;;;;;;1.84;100.00;100445.03;5096104;28;19912;-77
2023/03/28 06:31:10;;;;;;;;;;;;;;;2.06;100.00;100451.88;5096040;28;19944;-77
2023/03/28 06:33:39;;;;;;;;;;;;;;;2.60;100.00;100457.25;5096289;28;19931;-78
2023/03/28 06:36:05;;;;;;;;;;;;;;;2.82;100.00;100468.88;5095663;28;19916;-77
2023/03/28 06:38:32;;;;;;;;;;;;;;;2.69;100.00;100466.72;5095736;28;19916;-77
2023/03/28 06:40:57;;;;;;;;;;;;;;;2.50;100.00;100478.78;5095745;28;20322;-77
2023/03/28 06:43:22;;;;;;;;;;;;;;;2.27;100.00;100485.28;5094034;28;20335;-77
2023/03/28 06:45:48;;;;;;;;;;;;;;;2.07;100.00;100492.91;5095279;28;20007;-77
2023/03/28 06:48:13;;;;;;;;;;;;;;;1.96;100.00;100499.97;5095393;28;19923;-78
2023/03/28 06:50:38;;;;;;;;;;;;;;;1.90;100.00;100494.00;5095546;28;19912;-78
2023/03/28 06:53:03;;;;;;;;;;;;;;;1.82;100.00;100501.81;5095175;28;20394;-77
2023/03/28 06:55:29;;;;;;;;;;;;;;;1.79;100.00;100501.88;5095278;28;19919;-77
2023/03/28 06:57:54;;;;;;;;;;;;;;;1.66;100.00;100498.03;5076817;28;19930;-77
2023/03/28 07:00:19;;;;;;;;;;;;;;;1.75;100.00;100498.31;5095384;28;19912;-77
2023/03/28 07:02:45;;;;;;;;;;;;;;;1.88;100.00;100511.38;5095580;28;19912;-77
2023/03/28 07:05:10;;;;;;;;;;;;;;;1.90;100.00;100522.19;5095179;28;19942;-77
2023/03/28 07:07:35;;;;;;;;;;;;;;;1.94;100.00;100514.50;5093764;28;19966;-77
2023/03/28 07:10:02;;;;;;;;;;;;;;;2.03;100.00;100528.03;5095101;28;19912;-77
2023/03/28 07:12:28;;;;;;;;;;;;;;;2.12;100.00;100526.25;5094924;28;19912;-78
2023/03/28 07:14:56;;;;;;;;;;;;;;;2.43;100.00;100529.72;5093959;28;19920;-79
2023/03/28 07:17:21;;;;;;;;;;;;;;;3.01;100.00;100544.25;5095254;28;19939;-81
2023/03/28 07:19:49;;;;;;;;;;;;;;;3.63;100.00;100546.09;5094017;28;20376;-78
2023/03/28 07:22:15;;;;;;;;;;;;;;;4.63;100.00;100550.06;5094840;28;20400;-78
2023/03/28 07:24:41;;;;;;;;;;;;;;;5.50;98.69;100557.19;5094832;28;19919;-78
2023/03/28 07:27:08;;;;;;;;;;;;;;;5.98;92.55;100567.44;5095102;28;19912;-78
2023/03/28 07:29:35;;;;;;;;;;;;;;;5.79;85.93;100572.06;5094803;28;19979;-78
2023/03/28 07:32:02;;;;;;;;;;;;;;;5.31;84.55;100572.34;5094978;28;19922;-78
2023/03/28 07:34:29;;;;;;;;;;;;;;;4.75;84.27;100580.47;5093388;28;20006;-77
2023/03/28 07:36:56;;;;;;;;;;;;;;;4.30;86.95;100572.75;5093110;28;19920;-76
2023/03/28 07:39:22;;;;;;;;;;;;;;;4.04;88.24;100579.47;5095046;28;20281;-74
2023/03/28 07:41:48;;;;;;;;;;;;;;;4.08;86.73;100603.59;5094411;28;19912;-79
2023/03/28 07:44:14;;;;;;;;;;;;;;;4.67;83.05;100602.47;5092634;28;20005;-78
2023/03/28 07:46:41;;;;;;;;;;;;;;;4.92;79.60;100602.59;5094621;28;19912;-78
2023/03/28 07:49:07;;;;;;;;;;;;;;;4.84;79.68;100597.59;5094350;28;20001;-78
2023/03/28 07:51:32;;;;;;;;;;;;;;;5.05;80.25;100616.03;5092987;28;19912;-78
2023/03/28 07:54:00;;;;;;;;;;;;;;;5.63;76.04;100619.56;5094643;28;20017;-77
2023/03/28 07:56:27;;;;;;;;;;;;;;;5.65;72.18;100619.91;5094194;28;19945;-76
2023/03/28 07:58:53;;;;;;;;;;;;;;;5.42;72.71;100621.00;5093043;28;19966;-81
2023/03/28 08:01:21;;;;;;;;;;;;;;;5.10;74.32;100636.09;5092480;28;20277;-81
2023/03/28 08:03:47;;;;;;;;;;;;;;;4.62;84.33;100622.03;5094666;28;19912;-81
2023/03/28 08:06:14;;;;;;;;;;;;;;;4.05;91.44;100609.34;5093242;28;20297;-81
2023/03/28 08:08:40;;;;;;;;;;;;;;;3.56;95.41;100609.22;5095091;28;20296;-78
2023/03/28 08:11:06;;;;;;;;;;;;;;;3.23;99.70;100608.31;5094523;28;19919;-77
2023/03/28 08:13:31;;;;;;;;;;;;;;;3.13;100.00;100612.16;5094497;28;19912;-77
2023/03/28 08:15:56;;;;;;;;;;;;;;;3.64;100.00;100596.53;5092725;28;19996;-77
2023/03/28 08:18:28;;;;;;;;;;;;;;;4.46;99.59;100611.56;5093434;28;19923;-78
2023/03/28 08:20:59;;;;;;;;;;;;;;;6.18;95.67;100616.22;5093928;28;19916;-78
2023/03/28 08:23:26;;;;;;;;;;;;;;;7.65;83.36;100624.00;5092872;28;20007;-77
2023/03/28 08:26:03;;;;;;;;;;;;;;;8.12;70.67;100647.31;5092555;28;19916;-76
2023/03/28 08:28:31;;;;;;;;;;;;;;;8.06;68.63;100634.97;5094608;28;19969;-77
2023/03/28 08:30:57;;;;;;;;;;;;;;;7.83;63.90;100653.31;5094483;28;20404;-79
2023/03/28 08:33:23;;;;;;;;;;;;;;;7.31;60.14;100656.94;5095739;28;19916;-76
2023/03/28 08:35:52;;;;;;;;;;;;;;;6.41;61.03;100651.16;5092731;28;19959;-77
2023/03/28 08:38:19;;;;;;;;;;;;;;;5.63;62.21;100660.06;5093674;28;19923;-75
2023/03/28 08:40:47;;;;;;;;;;;;;;;4.98;67.86;100658.69;5094184;28;19912;-78
2023/03/28 08:43:16;;;;;;;;;;;;;;;4.53;69.62;100665.13;5092089;28;19916;-78
2023/03/28 08:45:48;;;;;;;;;;;;;;;4.12;72.85;100645.13;5093551;28;19919;-77
2023/03/28 08:48:26;;;;;;;;;;;;;;;3.89;75.23;100657.38;5093785;28;19932;-76
2023/03/28 08:51:02;;;;;;;;;;;;;;;3.91;74.83;100649.25;5093636;28;19912;-78
2023/03/28 08:53:37;;;;;;;;;;;;;;;4.96;74.97;100653.47;5075348;28;19912;-78
2023/03/28 08:56:05;;;;;;;;;;;;;;;5.88;67.80;100659.31;5093716;28;19965;-78
2023/03/28 08:58:46;;;;;;;;;;;;;;;6.50;61.81;100673.97;5093206;28;19920;-79
2023/03/28 09:01:12;;;;;;;;;;;;;;;7.66;55.21;100680.41;5093563;28;19912;-78
2023/03/28 09:03:38;;;;;;;;;;;;;;;8.80;51.90;100673.84;5093023;28;20050;-79
2023/03/28 09:06:25;;;;;;;;;;;;;;;9.89;49.77;100688.09;5074854;28;19999;-79
2023/03/28 09:08:52;;;;;;;;;;;;;;;9.65;45.85;100707.13;5092537;28;19916;-78
2023/03/28 09:11:26;;;;;;;;;;;;;;;8.46;52.63;100751.72;5093266;28;19912;-79
2023/03/28 09:13:52;;;;;;;;;;;;;;;6.75;70.73;100736.41;5093413;28;19912;-78
2023/03/28 09:16:25;;;;;;;;;;;;;;;5.26;83.12;100695.53;5093191;28;19919;-79
2023/03/28 09:18:59;;;;;;;;;;;;;;;4.28;93.36;100684.72;5092782;28;20302;-79
2023/03/28 09:21:44;;;;;;;;;;;;;;;3.67;98.74;100673.19;5093214;28;19942;-77
2023/03/28 09:24:16;;;;;;;;;;;;;;;4.03;100.00;100671.97;5093092;28;19912;-76
2023/03/28 09:27:01;;;;;;;;;;;;;;;5.18;100.00;100676.34;5092819;28;20369;-78
2023/03/28 09:29:27;;;;;;;;;;;;;;;6.36;100.00;100668.75;5093014;28;19973;-81
2023/03/28 09:31:55;;;;;;;;;;;;;;;7.09;100.00;100673.16;5092331;28;19920;-78
2023/03/28 09:34:21;;;;;;;;;;;;;;;7.69;100.00;100673.00;5093359;28;19912;-77
2023/03/28 09:36:47;;;;;;;;;;;;;;;8.21;96.47;100683.59;5091656;28;19912;-80
2023/03/28 09:39:26;;;;;;;;;;;;;;;8.07;86.50;100690.59;5091379;28;19935;-77
2023/03/28 09:42:08;;;;;;;;;;;;;;;7.49;83.46;100707.44;5091504;28;19935;-76
2023/03/28 09:44:54;;;;;;;;;;;;;;;6.82;81.84;100702.09;5093314;28;19912;-78
2023/03/28 09:47:21;;;;;;;;;;;;;;;6.43;81.74;100700.56;5092242;28;19912;-80
2023/03/28 09:49:47;;;;;;;;;;;;;;;6.50;85.15;100691.81;5092451;28;19959;-76
2023/03/28 09:52:21;;;;;;;;;;;;;;;7.12;89.69;100677.94;5092165;28;19957;-78
2023/03/28 09:54:47;;;;;;;;;;;;;;;7.62;85.65;100684.66;5092876;28;19995;-76
2023/03/28 09:57:14;;;;;;;;;;;;;;;7.52;74.61;100717.91;5092190;28;19958;-78
2023/03/28 09:59:39;;;;;;;;;;;;;;;6.87;61.48;100720.63;5091432;28;19912;-77
2023/03/28 10:02:09;;;;;;;;;;;;;;;6.55;64.18;100730.97;5164537;22;20007;-78
2023/03/28 10:04:35;;;;;;;;;;;;;;;6.61;61.38;100712.13;5037094;28;19912;-79
2023/03/28 10:07:10;;;;;;;;;;;;;;;6.57;58.57;100734.16;5020938;28;19928;-78
2023/03/28 10:09:47;;;;;;;;;;;;;;;6.66;55.16;100737.09;5055869;28;20003;-78
2023/03/28 10:12:16;;;;;;;;;;;;;;;6.78;57.86;100752.53;5020934;28;19917;-79
2023/03/28 10:14:46;;;;;;;;;;;;;;;7.03;63.17;100749.66;5043314;28;19970;-80
2023/03/28 10:17:17;;;;;;;;;;;;;;;7.30;60.64;100746.31;5036726;28;19924;-77
2023/03/28 10:19:46;;;;;;;;;;;;;;;7.34;53.26;100741.28;5052683;28;19912;-75
2023/03/28 10:22:13;;;;;;;;;;;;;;;7.08;53.02;100751.91;5020483;28;19927;-75
2023/03/28 10:24:39;;;;;;;;;;;;;;;6.96;53.81;100755.59;5055870;28;20009;-77
2023/03/28 10:27:26;;;;;;;;;;;;;;;6.97;53.85;100743.00;5024403;28;20423;-84
2023/03/28 10:29:52;;;;;;;;;;;;;;;7.32;51.36;100763.72;5053201;28;19924;-84
2023/03/28 10:32:26;;;;;;;;;;;;;;;7.36;47.54;100774.94;5038987;28;19927;-84
2023/03/28 10:35:03;;;;;;;;;;;;;;;7.02;46.69;100762.28;5057907;28;20057;-83
2023/03/28 10:37:30;;;;;;;;;;;;;;;6.76;47.31;100760.72;5038247;28;19956;-84
2023/03/28 10:40:00;;;;;;;;;;;;;;;6.52;48.09;100776.53;5038631;28;20297;-83
2023/03/28 10:42:25;;;;;;;;;;;;;;;6.62;49.07;100776.19;5056353;28;19917;-83
2023/03/28 10:45:00;;;;;;;;;;;;;;;6.95;48.04;100781.59;5056573;28;20062;-84
2023/03/28 10:47:26;;;;;;;;;;;;;;;7.35;48.56;100776.19;5039634;28;19939;-82
2023/03/28 10:49:52;;;;;;;;;;;;;;;7.87;47.17;100782.00;5057245;28;19917;-83
2023/03/28 10:52:33;;;;;;;;;;;;;;;8.17;42.03;100783.34;5056631;28;20311;-80
2023/03/28 10:55:04;;;;;;;;;;;;;;;7.78;43.05;100778.28;5056725;28;19912;-82
2023/03/28 10:57:52;;;;;;;;;;;;;;;7.35;41.70;100794.03;5040843;28;20011;-88
2023/03/28 11:00:47;;;;;;;;;;;;;;;6.95;43.10;100787.28;5051665;28;19912;-87
2023/03/28 11:03:37;;;;;;;;;;;;;;;6.76;42.28;100794.00;5047566;28;19927;-82
2023/03/28 11:06:15;;;;;;;;;;;;;;;6.47;42.55;100794.91;5050216;28;19989;-81
2023/03/28 11:08:40;;;;;;;;;;;;;;;6.58;41.57;100783.22;5055476;28;19934;-83
2023/03/28 11:11:08;;;;;;;;;;;;;;;6.78;42.05;100788.69;5056211;28;19917;-83
2023/03/28 11:13:49;;;;;;;;;;;;;;;6.93;42.15;100801.19;5055799;28;19919;-83
2023/03/28 11:16:34;;;;;;;;;;;;;;;6.77;45.87;100802.09;5055960;28;19913;-83
2023/03/28 11:19:20;;;;;;;;;;;;;;;6.51;50.97;100814.66;5055788;28;19923;-85
2023/03/28 11:22:00;;;;;;;;;;;;;;;6.59;51.26;100811.16;5056010;28;20004;-86
2023/03/28 11:24:31;;;;;;;;;;;;;;;6.53;49.83;100834.91;5038099;28;19958;-83
2023/03/28 11:27:09;;;;;;;;;;;;;;;6.39;48.39;100832.47;5056568;28;19924;-83
2023/03/28 11:29:38;;;;;;;;;;;;;;;6.06;49.88;100837.47;5057468;28;20282;-84
2023/03/28 11:32:09;;;;;;;;;;;;;;;5.69;49.86;100836.88;5039052;28;19920;-85
2023/03/28 11:34:39;;;;;;;;;;;;;;;5.39;52.21;100840.13;5022102;28;20361;-85
2023/03/28 11:37:09;;;;;;;;;;;;;;;5.16;54.76;100820.44;5021870;28;19920;-84
2023/03/28 11:39:47;;;;;;;;;;;;;;;5.05;55.59;100842.59;5038727;28;19920;-84
2023/03/28 11:42:30;;;;;;;;;;;;;;;5.09;55.27;100838.44;5058129;28;19913;-84
2023/03/28 11:45:11;;;;;;;;;;;;;;;5.16;54.02;100821.25;5056321;28;19959;-83
2023/03/28 11:48:02;;;;;;;;;;;;;;;5.40;52.64;100827.50;5055437;28;19923;-83
2023/03/28 11:50:48;;;;;;;;;;;;;;;5.87;51.88;100821.41;5055390;28;20336;-80
2023/03/28 11:53:22;;;;;;;;;;;;;;;6.39;50.17;100830.44;5036817;28;20416;-81
2023/03/28 11:56:11;;;;;;;;;;;;;;;6.65;48.50;100836.94;5055053;28;19913;-82
2023/03/28 11:58:39;;;;;;;;;;;;;;;6.55;48.13;100857.94;5049038;28;19921;-82
2023/03/28 12:01:08;;;;;;;;;;;;;;;6.29;50.33;100882.59;5037181;28;19917;-84
2023/03/28 12:03:45;;;;;;;;;;;;;;;5.96;62.23;100893.25;5054290;28;19952;-81
2023/03/28 12:06:13;;;;;;;;;;;;;;;5.14;80.81;100862.59;5054790;28;19912;-83
2023/03/28 12:08:43;;;;;;;;;;;;;;;4.59;87.78;100835.19;5055234;28;19956;-76
2023/03/28 12:11:11;;;;;;;;;;;;;;;4.37;91.72;100829.97;5054141;28;20015;-74
2023/03/28 12:13:49;;;;;;;;;;;;;;;4.45;93.23;100819.31;5035862;28;19916;-77
2023/03/28 12:16:20;;;;;;;;;;;;;;;4.23;92.31;100821.00;5053746;28;19921;-77
2023/03/28 12:18:48;;;;;;;;;;;;;;;4.00;94.62;100825.53;5036010;28;19971;-77
2023/03/28 12:21:26;;;;;;;;;;;;;;;3.74;94.97;100817.16;5036149;28;19917;-77
2023/03/28 12:24:04;;;;;;;;;;;;;;;3.45;96.94;100817.69;5055891;28;19917;-76
2023/03/28 12:26:41;;;;;;;;;;;;;;;3.24;98.95;100820.88;5036069;28;19966;-76
2023/03/28 12:29:19;;;;;;;;;;;;;;;3.18;100.00;100848.81;5053825;28;19912;-74
2023/03/28 12:31:47;;;;;;;;;;;;;;;2.77;100.00;100845.47;5053495;28;20003;-74
2023/03/28 12:34:22;;;;;;;;;;;;;;;2.36;100.00;100859.72;5053323;28;19971;-73
2023/03/28 12:36:51;;;;;;;;;;;;;;;2.13;100.00;100845.53;5053375;28;19951;-73
2023/03/28 12:39:21;;;;;;;;;;;;;;;2.11;100.00;100831.88;5018688;28;19921;-78
2023/03/28 12:41:47;;;;;;;;;;;;;;;2.08;100.00;100843.19;5053130;28;19916;-79
2023/03/28 12:44:13;;;;;;;;;;;;;;;2.04;100.00;100850.91;5051096;28;19938;-79
2023/03/28 12:46:44;;;;;;;;;;;;;;;2.09;100.00;100842.78;5033965;28;19913;-78
2023/03/28 12:49:15;;;;;;;;;;;;;;;2.38;100.00;100848.03;5034353;28;19955;-79
2023/03/28 12:51:46;;;;;;;;;;;;;;;2.62;100.00;100852.53;5052062;28;19923;-79
2023/03/28 12:54:14;;;;;;;;;;;;;;;2.92;100.00;100849.66;5034330;28;19913;-78